Wetterdaten: Woche 22.12.14 - 28.12.14 (KW52)
Datum Zeit Temp. A. Feuchte A. Luftdruck Regen Wind Richtung Sonnenschein ET UV Solar Taupunkt Windchill Windben Empfang
22.12.2014 00:00 3,2 C 69 % 1028,6 hPa 0,0 l/m 0,3 km/h (0 Bft) N 0,00 h 0,000 mm 0,0 UV-I 0 W/m -1,9 C 3,2 C 4,0 km/h (1 Bft) 0,00 %
22.12.2014 01:00 3,3 C 70 % 1028,2 hPa 0,0 l/m 0,0 km/h (0 Bft) N-NW 0,00 h 0,000 mm 0,0 UV-I 0 W/m -1,6 C 3,3 C 0,0 km/h (0 Bft) 0,00 %
22.12.2014 02:00 3,1 C 77 % 1027,9 hPa 0,0 l/m 2,9 km/h (1 Bft) S-SW 0,00 h 0,000 mm 0,0 UV-I 0 W/m -0,5 C 3,1 C 4,0 km/h (1 Bft) 0,00 %
22.12.2014 03:00 3,2 C 71 % 1027,5 hPa 0,0 l/m 7,9 km/h (2 Bft) S 0,00 h 0,000 mm 0,0 UV-I 0 W/m -1,5 C 1,8 C 11,9 km/h (2 Bft) 0,00 %
22.12.2014 04:00 3,2 C 71 % 1026,8 hPa 0,0 l/m 1,8 km/h (1 Bft) N 0,00 h 0,000 mm 0,0 UV-I 0 W/m -1,5 C 3,2 C 4,0 km/h (1 Bft) 0,00 %
22.12.2014 05:00 3,3 C 70 % 1025,7 hPa 0,0 l/m 0,6 km/h (0 Bft) S-SW 0,00 h 0,000 mm 0,0 UV-I 0 W/m -1,6 C 3,3 C 4,0 km/h (1 Bft) 0,00 %
22.12.2014 06:00 3,0 C 72 % 1026,5 hPa 0,0 l/m 4,7 km/h (1 Bft) N-NW 0,00 h 0,000 mm 0,0 UV-I 0 W/m -1,5 C 3,0 C 7,9 km/h (2 Bft) 0,00 %
22.12.2014 07:00 2,9 C 71 % 1026,2 hPa 0,0 l/m 2,1 km/h (1 Bft) SW 0,00 h 0,000 mm 0,0 UV-I 0 W/m -1,8 C 2,9 C 7,9 km/h (2 Bft) 0,00 %
22.12.2014 08:00 2,9 C 71 % 1026,2 hPa 0,0 l/m 2,9 km/h (1 Bft) SW 0,00 h 0,000 mm 0,0 UV-I 0 W/m -1,8 C 2,9 C 4,0 km/h (1 Bft) 0,00 %
22.12.2014 09:00 3,9 C 66 % 1026,0 hPa 0,0 l/m 6,4 km/h (2 Bft) N 1,00 h 0,000 mm 0,0 UV-I 0 W/m -1,9 C 3,9 C 11,9 km/h (2 Bft) 0,00 %
22.12.2014 10:00 5,1 C 62 % 1026,1 hPa 0,0 l/m 0,3 km/h (0 Bft) W-NW 1,00 h 0,000 mm 0,0 UV-I 0 W/m -1,6 C 5,1 C 4,0 km/h (1 Bft) 0,00 %
22.12.2014 11:00 6,0 C 60 % 1025,3 hPa 0,0 l/m 9,3 km/h (2 Bft) SW 1,00 h 0,000 mm 0,0 UV-I 0 W/m -1,2 C 3,7 C 11,9 km/h (2 Bft) 0,00 %
22.12.2014 12:00 6,7 C 54 % 1023,8 hPa 0,0 l/m 16,6 km/h (3 Bft) SW 1,00 h 0,000 mm 0,0 UV-I 0 W/m -1,9 C 0,4 C 24,1 km/h (4 Bft) 0,00 %
22.12.2014 13:00 7,3 C 53 % 1023,3 hPa 0,0 l/m 3,2 km/h (1 Bft) SW 1,00 h 0,000 mm 0,0 UV-I 0 W/m -1,6 C 7,3 C 7,9 km/h (2 Bft) 0,00 %
22.12.2014 14:00 7,7 C 53 % 1022,9 hPa 0,0 l/m 1,8 km/h (1 Bft) SW 1,00 h 0,000 mm 0,0 UV-I 0 W/m -1,3 C 7,7 C 7,9 km/h (2 Bft) 0,00 %
22.12.2014 15:00 8,7 C 52 % 1021,7 hPa 0,0 l/m 11,6 km/h (2 Bft) SW 1,00 h 0,000 mm 0,0 UV-I 0 W/m -0,6 C 5,2 C 19,8 km/h (3 Bft) 0,00 %
22.12.2014 16:00 9,1 C 47 % 1021,6 hPa 0,0 l/m 10,5 km/h (2 Bft) SW 0,00 h 0,000 mm 0,0 UV-I 0 W/m -1,6 C 6,3 C 15,8 km/h (3 Bft) 0,00 %
22.12.2014 17:00 9,0 C 46 % 1021,2 hPa 0,0 l/m 7,9 km/h (2 Bft) SW 0,00 h 0,000 mm 0,0 UV-I 0 W/m -2,0 C 7,9 C 19,8 km/h (3 Bft) 0,00 %
22.12.2014 18:00 8,7 C 47 % 1021,3 hPa 0,0 l/m 1,8 km/h (1 Bft) N 0,00 h 0,000 mm 0,0 UV-I 0 W/m -2,0 C 8,7 C 4,0 km/h (1 Bft) 0,00 %
22.12.2014 19:00 8,7 C 44 % 1021,3 hPa 0,0 l/m 0,6 km/h (0 Bft) SW 0,00 h 0,000 mm 0,0 UV-I 0 W/m -2,9 C 8,7 C 4,0 km/h (1 Bft) 0,00 %
22.12.2014 20:00 9,7 C 40 % 1021,1 hPa 0,0 l/m 5,5 km/h (1 Bft) SW 0,00 h 0,000 mm 0,0 UV-I 0 W/m -3,2 C 9,7 C 7,9 km/h (2 Bft) 0,00 %
22.12.2014 21:00 8,6 C 43 % 1021,7 hPa 0,0 l/m 3,2 km/h (1 Bft) SW 0,00 h 0,000 mm 0,0 UV-I 0 W/m -3,3 C 8,6 C 7,9 km/h (2 Bft) 0,00 %
22.12.2014 22:00 8,2 C 45 % 1022,1 hPa 0,0 l/m 10,5 km/h (2 Bft) N 0,00 h 0,000 mm 0,0 UV-I 0 W/m -3,0 C 5,3 C 11,9 km/h (2 Bft) 0,00 %
22.12.2014 23:00 8,2 C 47 % 1022,1 hPa 0,0 l/m 0,3 km/h (0 Bft) S-SW 0,00 h 0,000 mm 0,0 UV-I 0 W/m -2,4 C 8,2 C 4,0 km/h (1 Bft) 0,00 %
23.12.2014 00:00 8,3 C 48 % 1021,3 hPa 0,0 l/m 4,0 km/h (1 Bft) S-SW 0,00 h 0,000 mm 0,0 UV-I 0 W/m -2,1 C 8,3 C 7,9 km/h (2 Bft) 0,00 %
23.12.2014 01:00 7,1 C 53 % 1021,5 hPa 0,0 l/m 8,2 km/h (2 Bft) NW 0,00 h 0,000 mm 0,0 UV-I 0 W/m -1,8 C 5,7 C 11,9 km/h (2 Bft) 0,00 %
23.12.2014 02:00 6,1 C 60 % 1021,7 hPa 0,0 l/m 1,8 km/h (1 Bft) SW 0,00 h 0,000 mm 0,0 UV-I 0 W/m -1,1 C 6,1 C 4,0 km/h (1 Bft) 0,00 %
23.12.2014 03:00 6,3 C 57 % 1022,1 hPa 0,0 l/m 1,4 km/h (1 Bft) SW 0,00 h 0,000 mm 0,0 UV-I 0 W/m -1,6 C 6,3 C 4,0 km/h (1 Bft) 0,00 %
23.12.2014 04:00 5,4 C 56 % 1021,8 hPa 0,0 l/m 1,4 km/h (1 Bft) W-SW 0,00 h 0,000 mm 0,0 UV-I 0 W/m -2,7 C 5,4 C 4,0 km/h (1 Bft) 0,00 %
23.12.2014 05:00 5,5 C 52 % 1022,5 hPa 0,0 l/m 1,8 km/h (1 Bft) W 0,00 h 0,000 mm 0,0 UV-I 0 W/m -3,6 C 5,5 C 4,0 km/h (1 Bft) 0,00 %
23.12.2014 06:00 5,2 C 52 % 1022,9 hPa 0,0 l/m 1,8 km/h (1 Bft) NO 0,00 h 0,000 mm 0,0 UV-I 0 W/m -3,8 C 5,2 C 4,0 km/h (1 Bft) 0,00 %
23.12.2014 07:00 5,4 C 49 % 1023,3 hPa 0,0 l/m 1,4 km/h (1 Bft) W-SW 0,00 h 0,000 mm 0,0 UV-I 0 W/m -4,4 C 5,4 C 4,0 km/h (1 Bft) 0,00 %
23.12.2014 08:00 5,9 C 49 % 1023,5 hPa 0,0 l/m 1,8 km/h (1 Bft) N 0,00 h 0,000 mm 0,0 UV-I 0 W/m -4,0 C 5,9 C 4,0 km/h (1 Bft) 0,00 %
23.12.2014 09:00 5,0 C 52 % 1024,1 hPa 0,0 l/m 0,0 km/h (0 Bft) SW 0,00 h 0,000 mm 0,0 UV-I 0 W/m -4,0 C 5,0 C 0,0 km/h (0 Bft) 0,00 %
23.12.2014 10:00 7,4 C 46 % 1023,7 hPa 0,0 l/m 4,7 km/h (1 Bft) SW 1,00 h 0,000 mm 0,0 UV-I 0 W/m -3,4 C 7,4 C 11,9 km/h (2 Bft) 0,00 %
23.12.2014 11:00 7,9 C 45 % 1023,6 hPa 0,0 l/m 2,9 km/h (1 Bft) SW 1,00 h 0,000 mm 0,0 UV-I 0 W/m -3,3 C 7,9 C 4,0 km/h (1 Bft) 0,00 %
23.12.2014 12:00 9,1 C 40 % 1022,7 hPa 0,0 l/m 1,8 km/h (1 Bft) N 1,00 h 0,000 mm 0,0 UV-I 0 W/m -3,8 C 9,1 C 4,0 km/h (1 Bft) 0,00 %
23.12.2014 13:00 9,2 C 42 % 1021,9 hPa 0,0 l/m 0,0 km/h (0 Bft) S 0,00 h 0,000 mm 0,0 UV-I 0 W/m -3,0 C 9,2 C 0,0 km/h (0 Bft) 0,00 %
23.12.2014 14:00 9,7 C 40 % 1021,1 hPa 0,0 l/m 3,2 km/h (1 Bft) N 0,00 h 0,000 mm 0,0 UV-I 0 W/m -3,2 C 9,7 C 7,9 km/h (2 Bft) 0,00 %
23.12.2014 15:00 9,9 C 40 % 1020,7 hPa 0,0 l/m 0,0 km/h (0 Bft) N 1,00 h 0,000 mm 0,0 UV-I 0 W/m -3,1 C 9,9 C 0,0 km/h (0 Bft) 0,00 %
23.12.2014 16:00 8,4 C 44 % 1021,0 hPa 0,0 l/m 0,6 km/h (0 Bft) N-NW 1,00 h 0,000 mm 0,0 UV-I 0 W/m -3,1 C 8,4 C 4,0 km/h (1 Bft) 0,00 %
23.12.2014 17:00 8,6 C 37 % 1020,2 hPa 0,0 l/m 1,4 km/h (1 Bft) S-SW 0,00 h 0,000 mm 0,0 UV-I 0 W/m -5,2 C 8,6 C 4,0 km/h (1 Bft) 0,00 %
23.12.2014 18:00 8,8 C 35 % 1020,8 hPa 0,0 l/m 2,9 km/h (1 Bft) N 0,00 h 0,000 mm 0,0 UV-I 0 W/m -5,8 C 8,8 C 7,9 km/h (2 Bft) 0,00 %
23.12.2014 19:00 8,6 C 34 % 1020,9 hPa 0,0 l/m 0,6 km/h (0 Bft) N 0,00 h 0,000 mm 0,0 UV-I 0 W/m -6,4 C 8,6 C 4,0 km/h (1 Bft) 0,00 %
23.12.2014 20:00 5,8 C 45 % 1021,6 hPa 0,0 l/m 0,0 km/h (0 Bft) N 0,00 h 0,000 mm 0,0 UV-I 0 W/m -5,2 C 5,8 C 0,0 km/h (0 Bft) 0,00 %
23.12.2014 21:00 5,5 C 44 % 1021,4 hPa 0,0 l/m 0,0 km/h (0 Bft) N 0,00 h 0,000 mm 0,0 UV-I 0 W/m -5,8 C 5,5 C 0,0 km/h (0 Bft) 0,00 %
23.12.2014 22:00 4,1 C 51 % 1022,2 hPa 0,0 l/m 0,0 km/h (0 Bft) N 0,00 h 0,000 mm 0,0 UV-I 0 W/m -5,1 C 4,1 C 0,0 km/h (0 Bft) 0,00 %
23.12.2014 23:00 3,8 C 50 % 1022,0 hPa 0,0 l/m 0,0 km/h (0 Bft) N 0,00 h 0,000 mm 0,0 UV-I 0 W/m -5,6 C 3,8 C 0,0 km/h (0 Bft) 0,00 %
24.12.2014 00:00 1,6 C 52 % 1021,8 hPa 0,0 l/m 0,0 km/h (0 Bft) N 0,00 h 0,000 mm 0,0 UV-I 0 W/m -7,2 C 1,6 C 0,0 km/h (0 Bft) 0,00 %
24.12.2014 01:00 -0,1 C 62 % 1021,7 hPa 0,0 l/m 0,0 km/h (0 Bft) N 0,00 h 0,000 mm 0,0 UV-I 0 W/m -6,5 C -0,1 C 0,0 km/h (0 Bft) 0,00 %
24.12.2014 02:00 0,9 C 59 % 1021,5 hPa 0,0 l/m 0,0 km/h (0 Bft) N 0,00 h 0,000 mm 0,0 UV-I 0 W/m -6,2 C 0,9 C 0,0 km/h (0 Bft) 0,00 %
24.12.2014 03:00 0,4 C 60 % 1021,3 hPa 0,0 l/m 0,0 km/h (0 Bft) N 0,00 h 0,000 mm 0,0 UV-I 0 W/m -6,4 C 0,4 C 0,0 km/h (0 Bft) 0,00 %
24.12.2014 04:00 -0,9 C 65 % 1021,1 hPa 0,0 l/m 0,0 km/h (0 Bft) N 0,00 h 0,000 mm 0,0 UV-I 0 W/m -6,6 C -0,9 C 0,0 km/h (0 Bft) 0,00 %
24.12.2014 05:00 -0,9 C 62 % 1021,1 hPa 0,0 l/m 0,0 km/h (0 Bft) N 0,00 h 0,000 mm 0,0 UV-I 0 W/m -7,2 C -0,9 C 0,0 km/h (0 Bft) 0,00 %
24.12.2014 06:00 -1,3 C 65 % 1020,8 hPa 0,0 l/m 0,0 km/h (0 Bft) N 0,00 h 0,000 mm 0,0 UV-I 0 W/m -7,0 C -1,3 C 0,0 km/h (0 Bft) 0,00 %
24.12.2014 07:00 -1,3 C 64 % 1021,2 hPa 0,0 l/m 0,0 km/h (0 Bft) N 0,00 h 0,000 mm 0,0 UV-I 0 W/m -7,2 C -1,3 C 0,0 km/h (0 Bft) 0,00 %
24.12.2014 08:00 -1,6 C 63 % 1021,2 hPa 0,0 l/m 0,0 km/h (0 Bft) W 0,00 h 0,000 mm 0,0 UV-I 0 W/m -7,7 C -1,6 C 0,0 km/h (0 Bft) 0,00 %
24.12.2014 09:00 4,5 C 45 % 1020,7 hPa 0,0 l/m 3,2 km/h (1 Bft) N 0,00 h 0,000 mm 0,0 UV-I 0 W/m -6,4 C 4,5 C 7,9 km/h (2 Bft) 0,00 %
24.12.2014 10:00 3,1 C 55 % 1021,2 hPa 0,0 l/m 0,0 km/h (0 Bft) SW 0,00 h 0,000 mm 0,0 UV-I 0 W/m -5,0 C 3,1 C 0,0 km/h (0 Bft) 0,00 %
24.12.2014 11:00 4,0 C 61 % 1022,7 hPa 0,0 l/m 4,7 km/h (1 Bft) N 0,00 h 0,000 mm 0,0 UV-I 0 W/m -2,8 C 4,0 C 7,9 km/h (2 Bft) 0,00 %
24.12.2014 12:00 5,6 C 53 % 1021,7 hPa 0,0 l/m 0,0 km/h (0 Bft) W 0,00 h 0,000 mm 0,0 UV-I 0 W/m -3,2 C 5,6 C 0,0 km/h (0 Bft) 0,00 %
24.12.2014 13:00 6,9 C 51 % 1020,8 hPa 0,0 l/m 9,3 km/h (2 Bft) SW 0,00 h 0,000 mm 0,0 UV-I 0 W/m -2,5 C 4,6 C 11,9 km/h (2 Bft) 0,00 %
24.12.2014 14:00 7,5 C 50 % 1020,3 hPa 0,0 l/m 2,9 km/h (1 Bft) N 0,00 h 0,000 mm 0,0 UV-I 0 W/m -2,2 C 7,5 C 7,9 km/h (2 Bft) 0,00 %
24.12.2014 15:00 8,4 C 49 % 1019,8 hPa 0,0 l/m 0,3 km/h (0 Bft) W-SW 0,00 h 0,000 mm 0,0 UV-I 0 W/m -1,7 C 8,4 C 4,0 km/h (1 Bft) 0,00 %
24.12.2014 16:00 5,6 C 54 % 1020,3 hPa 0,0 l/m 2,1 km/h (1 Bft) N 0,00 h 0,000 mm 0,0 UV-I 0 W/m -3,0 C 5,6 C 4,0 km/h (1 Bft) 0,00 %
24.12.2014 17:00 5,0 C 54 % 1020,1 hPa 0,0 l/m 0,0 km/h (0 Bft) N 0,00 h 0,000 mm 0,0 UV-I 0 W/m -3,5 C 5,0 C 0,0 km/h (0 Bft) 0,00 %
24.12.2014 18:00 4,7 C 58 % 1019,1 hPa 0,0 l/m 0,3 km/h (0 Bft) O 0,00 h 0,000 mm 0,0 UV-I 0 W/m -2,8 C 4,7 C 4,0 km/h (1 Bft) 0,00 %
24.12.2014 19:00 5,0 C 61 % 1019,0 hPa 0,0 l/m 1,4 km/h (1 Bft) SW 0,00 h 0,000 mm 0,0 UV-I 0 W/m -1,9 C 5,0 C 4,0 km/h (1 Bft) 0,00 %
24.12.2014 20:00 5,7 C 59 % 1018,9 hPa 0,0 l/m 4,7 km/h (1 Bft) SW 0,00 h 0,000 mm 0,0 UV-I 0 W/m -1,7 C 5,7 C 11,9 km/h (2 Bft) 0,00 %
24.12.2014 21:00 5,6 C 60 % 1019,4 hPa 0,0 l/m 5,8 km/h (2 Bft) N 0,00 h 0,000 mm 0,0 UV-I 0 W/m -1,5 C 5,6 C 11,9 km/h (2 Bft) 0,00 %
24.12.2014 22:00 6,3 C 57 % 1018,8 hPa 0,0 l/m 0,3 km/h (0 Bft) N 0,00 h 0,000 mm 0,0 UV-I 0 W/m -1,6 C 6,3 C 4,0 km/h (1 Bft) 0,00 %
24.12.2014 23:00 5,4 C 60 % 1019,4 hPa 0,0 l/m 0,0 km/h (0 Bft) NO 0,00 h 0,000 mm 0,0 UV-I 0 W/m -1,7 C 5,4 C 0,0 km/h (0 Bft) 0,00 %
25.12.2014 00:00 5,9 C 52 % 1020,7 hPa 0,0 l/m 2,9 km/h (1 Bft) NO 0,00 h 0,000 mm 0,0 UV-I 0 W/m -3,2 C 5,9 C 4,0 km/h (1 Bft) 0,00 %
25.12.2014 01:00 6,5 C 49 % 1020,3 hPa 0,0 l/m 0,6 km/h (0 Bft) S-SW 0,00 h 0,000 mm 0,0 UV-I 0 W/m -3,4 C 6,5 C 4,0 km/h (1 Bft) 0,00 %
25.12.2014 02:00 7,0 C 49 % 1019,8 hPa 0,0 l/m 6,9 km/h (2 Bft) N 0,00 h 0,000 mm 0,0 UV-I 0 W/m -3,0 C 6,6 C 11,9 km/h (2 Bft) 0,00 %
25.12.2014 03:00 6,3 C 58 % 1019,9 hPa 0,0 l/m 0,3 km/h (0 Bft) W-NW 0,00 h 0,000 mm 0,0 UV-I 0 W/m -1,3 C 6,3 C 4,0 km/h (1 Bft) 0,00 %
25.12.2014 04:00 7,3 C 59 % 1019,4 hPa 0,0 l/m 9,0 km/h (2 Bft) W-NW 0,00 h 0,000 mm 0,0 UV-I 0 W/m -0,2 C 5,3 C 19,8 km/h (3 Bft) 0,00 %
25.12.2014 05:00 7,3 C 61 % 1019,1 hPa 0,0 l/m 4,3 km/h (1 Bft) SW 0,00 h 0,000 mm 0,0 UV-I 0 W/m 0,3 C 7,3 C 7,9 km/h (2 Bft) 0,00 %
25.12.2014 06:00 6,2 C 73 % 1019,3 hPa 0,0 l/m 4,7 km/h (1 Bft) N 0,00 h 0,000 mm 0,0 UV-I 0 W/m 1,7 C 6,2 C 7,9 km/h (2 Bft) 0,00 %
25.12.2014 07:00 5,8 C 75 % 1020,0 hPa 0,3 l/m 0,6 km/h (0 Bft) SW 0,00 h 0,000 mm 0,0 UV-I 0 W/m 1,7 C 5,8 C 4,0 km/h (1 Bft) 0,00 %
25.12.2014 08:00 6,1 C 73 % 1019,9 hPa 0,0 l/m 4,7 km/h (1 Bft) SW 0,00 h 0,000 mm 0,0 UV-I 0 W/m 1,6 C 6,1 C 7,9 km/h (2 Bft) 0,00 %
25.12.2014 09:00 6,4 C 71 % 1019,9 hPa 0,0 l/m 6,9 km/h (2 Bft) N 0,00 h 0,000 mm 0,0 UV-I 0 W/m 1,5 C 6,0 C 11,9 km/h (2 Bft) 0,00 %
25.12.2014 10:00 5,3 C 75 % 1022,1 hPa 0,3 l/m 0,6 km/h (0 Bft) SW 0,00 h 0,000 mm 0,0 UV-I 0 W/m 1,2 C 5,3 C 4,0 km/h (1 Bft) 0,00 %
25.12.2014 11:00 4,3 C 81 % 1023,0 hPa 0,0 l/m 3,2 km/h (1 Bft) NW 0,00 h 0,000 mm 0,0 UV-I 0 W/m 1,3 C 4,3 C 7,9 km/h (2 Bft) 0,00 %
25.12.2014 12:00 4,0 C 72 % 1023,1 hPa 0,0 l/m 2,1 km/h (1 Bft) W-SW 0,00 h 0,000 mm 0,0 UV-I 0 W/m -0,6 C 4,0 C 4,0 km/h (1 Bft) 0,00 %
25.12.2014 13:00 4,1 C 73 % 1022,7 hPa 0,0 l/m 1,4 km/h (1 Bft) N 0,00 h 0,000 mm 0,0 UV-I 0 W/m -0,3 C 4,1 C 4,0 km/h (1 Bft) 0,00 %
25.12.2014 14:00 4,4 C 68 % 1022,7 hPa 0,0 l/m 0,0 km/h (0 Bft) N-NW 0,00 h 0,000 mm 0,0 UV-I 0 W/m -1,0 C 4,4 C 0,0 km/h (0 Bft) 0,00 %
25.12.2014 15:00 3,7 C 70 % 1023,1 hPa 0,0 l/m 1,8 km/h (1 Bft) NO 0,00 h 0,000 mm 0,0 UV-I 0 W/m -1,3 C 3,7 C 4,0 km/h (1 Bft) 0,00 %
25.12.2014 16:00 3,4 C 73 % 1023,9 hPa 0,0 l/m 1,8 km/h (1 Bft) N 0,00 h 0,000 mm 0,0 UV-I 0 W/m -1,0 C 3,4 C 4,0 km/h (1 Bft) 0,00 %
25.12.2014 17:00 2,9 C 72 % 1024,3 hPa 0,0 l/m 0,3 km/h (0 Bft) N 0,00 h 0,000 mm 0,0 UV-I 0 W/m -1,6 C 2,9 C 4,0 km/h (1 Bft) 0,00 %
25.12.2014 18:00 3,0 C 71 % 1024,7 hPa 0,0 l/m 0,0 km/h (0 Bft) SW 0,00 h 0,000 mm 0,0 UV-I 0 W/m -1,7 C 3,0 C 0,0 km/h (0 Bft) 0,00 %
25.12.2014 19:00 3,1 C 70 % 1025,0 hPa 0,0 l/m 4,3 km/h (1 Bft) N 0,00 h 0,000 mm 0,0 UV-I 0 W/m -1,8 C 3,1 C 7,9 km/h (2 Bft) 0,00 %
25.12.2014 20:00 2,9 C 68 % 1025,4 hPa 0,0 l/m 0,3 km/h (0 Bft) N 0,00 h 0,000 mm 0,0 UV-I 0 W/m -2,4 C 2,9 C 4,0 km/h (1 Bft) 0,00 %
25.12.2014 21:00 3,0 C 62 % 1025,3 hPa 0,0 l/m 0,0 km/h (0 Bft) N 0,00 h 0,000 mm 0,0 UV-I 0 W/m -3,6 C 3,0 C 0,0 km/h (0 Bft) 0,00 %
25.12.2014 22:00 2,9 C 66 % 1025,4 hPa 0,0 l/m 0,3 km/h (0 Bft) W-SW 0,00 h 0,000 mm 0,0 UV-I 0 W/m -2,8 C 2,9 C 4,0 km/h (1 Bft) 0,00 %
25.12.2014 23:00 3,0 C 63 % 1025,3 hPa 0,0 l/m 3,2 km/h (1 Bft) S-SW 0,00 h 0,000 mm 0,0 UV-I 0 W/m -3,3 C 3,0 C 7,9 km/h (2 Bft) 0,00 %
26.12.2014 00:00 3,0 C 64 % 1024,0 hPa 0,0 l/m 2,1 km/h (1 Bft) S-SW 0,00 h 0,000 mm 0,0 UV-I 0 W/m -3,1 C 3,0 C 4,0 km/h (1 Bft) 0,00 %
26.12.2014 01:00 2,9 C 63 % 1023,7 hPa 0,0 l/m 2,9 km/h (1 Bft) S-SW 0,00 h 0,000 mm 0,0 UV-I 0 W/m -3,4 C 2,9 C 4,0 km/h (1 Bft) 0,00 %
26.12.2014 02:00 2,7 C 64 % 1023,7 hPa 0,0 l/m 13,0 km/h (3 Bft) N 0,00 h 0,000 mm 0,0 UV-I 0 W/m -3,4 C -2,5 C 19,8 km/h (3 Bft) 0,00 %
26.12.2014 03:00 1,4 C 74 % 1023,9 hPa 0,0 l/m 0,6 km/h (0 Bft) N-NW 0,00 h 0,000 mm 0,0 UV-I 0 W/m -2,7 C 1,4 C 4,0 km/h (1 Bft) 0,00 %
26.12.2014 04:00 1,6 C 70 % 1024,2 hPa 0,0 l/m 2,9 km/h (1 Bft) N-NW 0,00 h 0,000 mm 0,0 UV-I 0 W/m -3,3 C 1,6 C 7,9 km/h (2 Bft) 0,00 %
26.12.2014 05:00 0,8 C 72 % 1025,1 hPa 0,0 l/m 1,4 km/h (1 Bft) S-SW 0,00 h 0,000 mm 0,0 UV-I 0 W/m -3,7 C 0,8 C 4,0 km/h (1 Bft) 0,00 %
26.12.2014 06:00 1,2 C 70 % 1025,3 hPa 0,0 l/m 2,1 km/h (1 Bft) N 0,00 h 0,000 mm 0,0 UV-I 0 W/m -3,7 C 1,2 C 4,0 km/h (1 Bft) 0,00 %
26.12.2014 07:00 1,1 C 67 % 1025,8 hPa 0,0 l/m 0,3 km/h (0 Bft) SW 0,00 h 0,000 mm 0,0 UV-I 0 W/m -4,3 C 1,1 C 4,0 km/h (1 Bft) 0,00 %
26.12.2014 08:00 0,9 C 67 % 1026,1 hPa 0,0 l/m 2,1 km/h (1 Bft) SW 0,00 h 0,000 mm 0,0 UV-I 0 W/m -4,5 C 0,9 C 4,0 km/h (1 Bft) 0,00 %
26.12.2014 09:00 0,9 C 69 % 1026,5 hPa 0,0 l/m 4,7 km/h (1 Bft) SW 0,00 h 0,000 mm 0,0 UV-I 0 W/m -4,1 C 0,9 C 7,9 km/h (2 Bft) 0,00 %
26.12.2014 10:00 1,1 C 68 % 1027,1 hPa 0,0 l/m 6,9 km/h (2 Bft) SW 0,00 h 0,000 mm 0,0 UV-I 0 W/m -4,1 C 0,6 C 15,8 km/h (3 Bft) 0,00 %
26.12.2014 11:00 1,2 C 67 % 1027,1 hPa 0,0 l/m 3,2 km/h (1 Bft) NW 0,00 h 0,000 mm 0,0 UV-I 0 W/m -4,2 C 1,2 C 7,9 km/h (2 Bft) 0,00 %
26.12.2014 12:00 0,9 C 69 % 1026,5 hPa 0,0 l/m 2,1 km/h (1 Bft) N 0,00 h 0,000 mm 0,0 UV-I 0 W/m -4,1 C 0,9 C 7,9 km/h (2 Bft) 0,00 %
26.12.2014 13:00 1,8 C 62 % 1026,0 hPa 0,3 l/m 0,0 km/h (0 Bft) W-SW 0,00 h 0,000 mm 0,0 UV-I 0 W/m -4,7 C 1,8 C 0,0 km/h (0 Bft) 0,00 %
26.12.2014 14:00 0,6 C 69 % 1025,9 hPa 0,0 l/m 1,4 km/h (1 Bft) N 0,00 h 0,000 mm 0,0 UV-I 0 W/m -4,4 C 0,6 C 4,0 km/h (1 Bft) 0,00 %
26.12.2014 15:00 0,8 C 67 % 1025,8 hPa 0,0 l/m 0,3 km/h (0 Bft) N 0,00 h 0,000 mm 0,0 UV-I 0 W/m -4,6 C 0,8 C 4,0 km/h (1 Bft) 0,00 %
26.12.2014 16:00 0,3 C 65 % 1025,6 hPa 0,0 l/m 0,0 km/h (0 Bft) N 0,00 h 0,000 mm 0,0 UV-I 0 W/m -5,5 C 0,3 C 0,0 km/h (0 Bft) 0,00 %
26.12.2014 17:00 -0,4 C 70 % 1025,7 hPa 0,0 l/m 0,0 km/h (0 Bft) N 0,00 h 0,000 mm 0,0 UV-I 0 W/m -5,2 C -0,4 C 0,0 km/h (0 Bft) 0,00 %
26.12.2014 18:00 -0,5 C 71 % 1025,4 hPa 0,0 l/m 0,0 km/h (0 Bft) N 0,00 h 0,000 mm 0,0 UV-I 0 W/m -5,1 C -0,5 C 0,0 km/h (0 Bft) 0,00 %
26.12.2014 19:00 -0,4 C 71 % 1025,0 hPa 0,0 l/m 0,0 km/h (0 Bft) N 0,00 h 0,000 mm 0,0 UV-I 0 W/m -5,0 C -0,4 C 0,0 km/h (0 Bft) 0,00 %
26.12.2014 20:00 -0,6 C 80 % 1024,7 hPa 0,0 l/m 0,0 km/h (0 Bft) N 0,00 h 0,000 mm 0,0 UV-I 0 W/m -3,6 C -0,6 C 0,0 km/h (0 Bft) 0,00 %
26.12.2014 21:00 -0,8 C 82 % 1024,4 hPa 0,0 l/m 0,0 km/h (0 Bft) N 0,00 h 0,000 mm 0,0 UV-I 0 W/m -3,5 C -0,8 C 0,0 km/h (0 Bft) 0,00 %
26.12.2014 22:00 -0,9 C 82 % 1023,7 hPa 0,0 l/m 0,0 km/h (0 Bft) N 0,00 h 0,000 mm 0,0 UV-I 0 W/m -3,6 C -0,9 C 0,0 km/h (0 Bft) 0,00 %
26.12.2014 23:00 -1,4 C 80 % 1023,4 hPa 0,0 l/m 0,0 km/h (0 Bft) N 0,00 h 0,000 mm 0,0 UV-I 0 W/m -4,4 C -1,4 C 0,0 km/h (0 Bft) 0,00 %
27.12.2014 00:00 -1,4 C 80 % 1023,7 hPa 0,0 l/m 0,0 km/h (0 Bft) N 0,00 h 0,000 mm 0,0 UV-I 0 W/m -4,4 C -1,4 C 0,0 km/h (0 Bft) 0,00 %
27.12.2014 01:00 -2,2 C 78 % 1023,1 hPa 0,0 l/m 0,0 km/h (0 Bft) N 0,00 h 0,000 mm 0,0 UV-I 0 W/m -5,5 C -2,2 C 0,0 km/h (0 Bft) 0,00 %
27.12.2014 02:00 -2,3 C 78 % 1022,5 hPa 0,0 l/m 0,0 km/h (0 Bft) N 0,00 h 0,000 mm 0,0 UV-I 0 W/m -5,6 C -2,3 C 0,0 km/h (0 Bft) 0,00 %
27.12.2014 03:00 -4,0 C 75 % 1021,6 hPa 0,0 l/m 0,0 km/h (0 Bft) N 0,00 h 0,000 mm 0,0 UV-I 0 W/m -7,8 C -4,0 C 0,0 km/h (0 Bft) 0,00 %
27.12.2014 04:00 -5,6 C 77 % 1020,9 hPa 0,0 l/m 0,0 km/h (0 Bft) N 0,00 h 0,000 mm 0,0 UV-I 0 W/m -9,0 C -5,6 C 0,0 km/h (0 Bft) 0,00 %
27.12.2014 05:00 -5,5 C 80 % 1019,5 hPa 0,0 l/m 0,0 km/h (0 Bft) N 0,00 h 0,000 mm 0,0 UV-I 0 W/m -8,4 C -5,5 C 0,0 km/h (0 Bft) 0,00 %
27.12.2014 06:00 -5,9 C 80 % 1017,8 hPa 0,0 l/m 0,0 km/h (0 Bft) N 0,00 h 0,000 mm 0,0 UV-I 0 W/m -8,8 C -5,9 C 0,0 km/h (0 Bft) 0,00 %
27.12.2014 07:00 -7,2 C 74 % 1016,2 hPa 0,0 l/m 0,0 km/h (0 Bft) N 0,00 h 0,000 mm 0,0 UV-I 0 W/m -11,0 C -7,2 C 0,0 km/h (0 Bft) 0,00 %
27.12.2014 08:00 -6,7 C 78 % 1014,4 hPa 0,0 l/m 0,0 km/h (0 Bft) N 0,00 h 0,000 mm 0,0 UV-I 0 W/m -9,9 C -6,7 C 0,0 km/h (0 Bft) 0,00 %
27.12.2014 09:00 -5,1 C 77 % 1012,0 hPa 0,0 l/m 0,0 km/h (0 Bft) N 0,00 h 0,000 mm 0,0 UV-I 0 W/m -8,5 C -5,1 C 0,0 km/h (0 Bft) 0,00 %
27.12.2014 10:00 -4,0 C 77 % 1008,9 hPa 0,0 l/m 0,0 km/h (0 Bft) N 0,00 h 0,000 mm 0,0 UV-I 0 W/m -7,4 C -4,0 C 0,0 km/h (0 Bft) 0,00 %
27.12.2014 11:00 -3,8 C 74 % 1007,1 hPa 0,0 l/m 0,0 km/h (0 Bft) N 0,00 h 0,000 mm 0,0 UV-I 0 W/m -7,7 C -3,8 C 0,0 km/h (0 Bft) 0,00 %
27.12.2014 12:00 -3,5 C 65 % 1004,8 hPa 0,0 l/m 0,0 km/h (0 Bft) N 0,00 h 0,000 mm 0,0 UV-I 0 W/m -9,1 C -3,5 C 0,0 km/h (0 Bft) 0,00 %
27.12.2014 13:00 -3,4 C 63 % 1003,4 hPa 0,0 l/m 0,0 km/h (0 Bft) S-SO 0,00 h 0,000 mm 0,0 UV-I 0 W/m -9,4 C -3,4 C 0,0 km/h (0 Bft) 0,00 %
27.12.2014 14:00 -3,1 C 63 % 1002,3 hPa 0,0 l/m 1,4 km/h (1 Bft) O 0,00 h 0,000 mm 0,0 UV-I 0 W/m -9,1 C -3,1 C 4,0 km/h (1 Bft) 0,00 %
27.12.2014 15:00 -3,0 C 64 % 1001,1 hPa 0,0 l/m 5,5 km/h (1 Bft) N 0,00 h 0,000 mm 0,0 UV-I 0 W/m -8,8 C -3,0 C 7,9 km/h (2 Bft) 0,00 %
27.12.2014 16:00 -3,0 C 65 % 1000,5 hPa 0,0 l/m 0,6 km/h (0 Bft) S-SO 0,00 h 0,000 mm 0,0 UV-I 0 W/m -8,6 C -3,0 C 4,0 km/h (1 Bft) 0,00 %
27.12.2014 17:00 -3,4 C 70 % 1000,1 hPa 0,0 l/m 6,4 km/h (2 Bft) O-NO 0,00 h 0,000 mm 0,0 UV-I 0 W/m -8,1 C -3,3 C 7,9 km/h (2 Bft) 0,00 %
27.12.2014 18:00 -3,5 C 75 % 999,8 hPa 0,0 l/m 2,1 km/h (1 Bft) N 0,00 h 0,000 mm 0,0 UV-I 0 W/m -7,3 C -3,5 C 4,0 km/h (1 Bft) 0,00 %
27.12.2014 19:00 -3,6 C 77 % 1000,2 hPa 0,0 l/m 0,0 km/h (0 Bft) N 0,00 h 0,000 mm 0,0 UV-I 0 W/m -7,0 C -3,6 C 0,0 km/h (0 Bft) 0,00 %
27.12.2014 20:00 -3,5 C 76 % 999,4 hPa 0,0 l/m 0,0 km/h (0 Bft) N 0,00 h 0,000 mm 0,0 UV-I 0 W/m -7,1 C -3,5 C 0,0 km/h (0 Bft) 0,00 %
27.12.2014 21:00 -3,4 C 76 % 1000,1 hPa 0,0 l/m 0,0 km/h (0 Bft) N 0,00 h 0,000 mm 0,0 UV-I 0 W/m -7,0 C -3,4 C 0,0 km/h (0 Bft) 0,00 %
27.12.2014 22:00 -3,3 C 75 % 1001,2 hPa 0,0 l/m 0,0 km/h (0 Bft) N 0,00 h 0,000 mm 0,0 UV-I 0 W/m -7,1 C -3,3 C 0,0 km/h (0 Bft) 0,00 %
27.12.2014 23:00 -3,5 C 76 % 1001,2 hPa 0,0 l/m 0,0 km/h (0 Bft) N 0,00 h 0,000 mm 0,0 UV-I 0 W/m -7,1 C -3,5 C 0,0 km/h (0 Bft) 0,00 %
28.12.2014 00:00 -3,2 C 76 % 1000,9 hPa 0,0 l/m 0,0 km/h (0 Bft) N 0,00 h 0,000 mm 0,0 UV-I 0 W/m -6,8 C -3,2 C 0,0 km/h (0 Bft) 0,00 %
28.12.2014 01:00 -3,2 C 76 % 1000,9 hPa 0,0 l/m 0,0 km/h (0 Bft) N 0,00 h 0,000 mm 0,0 UV-I 0 W/m -6,8 C -3,2 C 0,0 km/h (0 Bft) 0,00 %
28.12.2014 02:00 -3,1 C 76 % 1000,9 hPa 0,0 l/m 0,0 km/h (0 Bft) N 0,00 h 0,000 mm 0,0 UV-I 0 W/m -6,7 C -3,1 C 0,0 km/h (0 Bft) 0,00 %
28.12.2014 03:00 -3,0 C 76 % 1000,9 hPa 0,0 l/m 0,0 km/h (0 Bft) N 0,00 h 0,000 mm 0,0 UV-I 0 W/m -6,6 C -3,0 C 0,0 km/h (0 Bft) 0,00 %
28.12.2014 04:00 -2,9 C 76 % 1001,6 hPa 0,0 l/m 0,0 km/h (0 Bft) N 0,00 h 0,000 mm 0,0 UV-I 0 W/m -6,5 C -2,9 C 0,0 km/h (0 Bft) 0,00 %
28.12.2014 05:00 -2,7 C 76 % 1003,0 hPa 0,0 l/m 0,0 km/h (0 Bft) N 0,00 h 0,000 mm 0,0 UV-I 0 W/m -6,3 C -2,7 C 0,0 km/h (0 Bft) 0,00 %
28.12.2014 06:00 -2,7 C 77 % 1003,4 hPa 0,0 l/m 0,0 km/h (0 Bft) N 0,00 h 0,000 mm 0,0 UV-I 0 W/m -6,2 C -2,7 C 0,0 km/h (0 Bft) 0,00 %
28.12.2014 07:00 -2,6 C 77 % 1004,4 hPa 0,0 l/m 0,0 km/h (0 Bft) N 0,00 h 0,000 mm 0,0 UV-I 0 W/m -6,1 C -2,6 C 0,0 km/h (0 Bft) 0,00 %
28.12.2014 08:00 -2,5 C 78 % 1005,8 hPa 0,0 l/m 0,0 km/h (0 Bft) N 0,00 h 0,000 mm 0,0 UV-I 0 W/m -5,8 C -2,5 C 0,0 km/h (0 Bft) 0,00 %
28.12.2014 09:00 -2,5 C 68 % 1007,5 hPa 0,0 l/m 0,0 km/h (0 Bft) N 0,00 h 0,000 mm 0,0 UV-I 0 W/m -7,6 C -2,5 C 0,0 km/h (0 Bft) 0,00 %
28.12.2014 10:00 -2,7 C 66 % 1009,0 hPa 0,0 l/m 0,0 km/h (0 Bft) N 0,00 h 0,000 mm 0,0 UV-I 0 W/m -8,1 C -2,7 C 0,0 km/h (0 Bft) 0,00 %
28.12.2014 11:00 -2,8 C 69 % 1010,4 hPa 0,0 l/m 0,0 km/h (0 Bft) N 0,00 h 0,000 mm 0,0 UV-I 0 W/m -7,7 C -2,8 C 0,0 km/h (0 Bft) 0,00 %
28.12.2014 12:00 -2,9 C 71 % 1011,2 hPa 0,0 l/m 0,0 km/h (0 Bft) N 0,00 h 0,000 mm 0,0 UV-I 0 W/m -7,4 C -2,9 C 0,0 km/h (0 Bft) 0,00 %
28.12.2014 13:00 -2,9 C 71 % 1012,2 hPa 0,0 l/m 0,0 km/h (0 Bft) N 0,00 h 0,000 mm 0,0 UV-I 0 W/m -7,4 C -2,9 C 0,0 km/h (0 Bft) 0,00 %
28.12.2014 14:00 -2,9 C 69 % 1013,7 hPa 0,0 l/m 0,0 km/h (0 Bft) N 0,00 h 0,000 mm 0,0 UV-I 0 W/m -7,8 C -2,9 C 0,0 km/h (0 Bft) 0,00 %
28.12.2014 15:00 -3,5 C 71 % 1015,6 hPa 0,0 l/m 0,0 km/h (0 Bft) N 0,00 h 0,000 mm 0,0 UV-I 0 W/m -8,0 C -3,5 C 0,0 km/h (0 Bft) 0,00 %
28.12.2014 16:00 -3,6 C 70 % 1018,1 hPa 0,0 l/m 0,0 km/h (0 Bft) N 0,00 h 0,000 mm 0,0 UV-I 0 W/m -8,3 C -3,6 C 0,0 km/h (0 Bft) 0,00 %
28.12.2014 17:00 -4,4 C 63 % 1020,3 hPa 0,0 l/m 0,0 km/h (0 Bft) N 0,00 h 0,000 mm 0,0 UV-I 0 W/m -10,4 C -4,4 C 0,0 km/h (0 Bft) 0,00 %
28.12.2014 18:00 -5,2 C 60 % 1022,6 hPa 0,0 l/m 0,0 km/h (0 Bft) N 0,00 h 0,000 mm 0,0 UV-I 0 W/m -11,7 C -5,2 C 0,0 km/h (0 Bft) 0,00 %
28.12.2014 19:00 -6,6 C 60 % 1024,3 hPa 0,0 l/m 0,0 km/h (0 Bft) N 0,00 h 0,000 mm 0,0 UV-I 0 W/m -13,0 C -6,6 C 0,0 km/h (0 Bft) 0,00 %
28.12.2014 20:00 -9,1 C 64 % 1026,1 hPa 0,0 l/m 0,0 km/h (0 Bft) N 0,00 h 0,000 mm 0,0 UV-I 0 W/m -14,6 C -9,1 C 0,0 km/h (0 Bft) 0,00 %
28.12.2014 21:00 -10,3 C 67 % 1027,4 hPa 0,0 l/m 0,0 km/h (0 Bft) N 0,00 h 0,000 mm 0,0 UV-I 0 W/m -15,2 C -10,3 C 0,0 km/h (0 Bft) 0,00 %
28.12.2014 22:00 -10,3 C 67 % 1028,1 hPa 0,0 l/m 0,0 km/h (0 Bft) N 0,00 h 0,000 mm 0,0 UV-I 0 W/m -15,2 C -10,3 C 0,0 km/h (0 Bft) 0,00 %
28.12.2014 23:00 -11,5 C 68 % 1029,4 hPa 0,0 l/m 0,0 km/h (0 Bft) N 0,00 h 0,000 mm 0,0 UV-I 0 W/m -16,2 C -11,5 C 0,0 km/h (0 Bft) 0,00 %
Min-Datum _ 28.12.14 23.12.14 27.12.14 - 22.12.14 - - - - - 28.12.14 28.12.14 22.12.14 22.12.14
_ Min-Zeit 23:00 19:00 20:00 - 01:00 - - - - - 23:00 23:00 01:00 00:00
Minimum _ -11,5 C 34 % 999,4 hPa - 0,0 km/h (0 Bft) - - - - - -16,2 C -11,5 C 0,0 km/h (0 Bft) 0,00 %
Max-Datum _ 23.12.14 26.12.14 28.12.14 25.12.14 22.12.14 - 22.12.14 22.12.14 22.12.14 22.12.14 25.12.14 23.12.14 22.12.14 22.12.14
_ Max-Zeit 15:00 21:00 23:00 07:00 12:00 - 09:00 00:00 11:00 13:00 06:00 15:00 12:00 00:00
Maximum _ 9,9 C 82 % 1029,4 hPa 0,3 l/m 16,6 km/h
SW (3 Bft)
- 1,00 h 0,000 mm 2,0 UV-I 234 W/m 1,7 C 9,9 C 24,1 km/h
SW (4 Bft)
0,00 %
Durchschnitt _ 1,9 C 63 % 1019,4 hPa #0,9 l/m 1,9 km/h (1 Bft) SW #12:00 h #0,000 mm 0,0 UV-I 0 W/m -4,6 C 1,7 C 3,9 km/h (1 Bft) 0,00 %